createdAt,value
2022-12-23T00:00:21.807Z,5.89
2022-12-23T00:01:21.920Z,5.83
2022-12-23T00:02:21.836Z,5.79
2022-12-23T00:03:22.146Z,5.86
2022-12-23T00:04:21.869Z,5.86
2022-12-23T00:05:21.823Z,5.89
2022-12-23T00:06:21.821Z,5.77
2022-12-23T00:07:21.903Z,5.79
2022-12-23T00:08:21.897Z,5.74
2022-12-23T00:09:21.721Z,5.65
2022-12-23T00:10:21.701Z,5.69
2022-12-23T00:11:21.840Z,5.80
2022-12-23T00:12:21.781Z,5.76
2022-12-23T00:13:21.661Z,5.65
2022-12-23T00:14:22.194Z,5.51
2022-12-23T00:15:21.602Z,5.33
2022-12-23T00:16:21.841Z,5.29
2022-12-23T00:17:22.941Z,5.22
2022-12-23T00:18:21.662Z,5.13
2022-12-23T00:19:21.723Z,5.03
2022-12-23T00:20:23.430Z,4.86
2022-12-23T00:21:21.630Z,4.70
2022-12-23T00:22:21.663Z,4.64
2022-12-23T00:23:21.602Z,4.70
2022-12-23T00:24:21.726Z,4.71
2022-12-23T00:25:21.602Z,4.66
2022-12-23T00:26:21.680Z,4.63
2022-12-23T00:27:21.520Z,4.53
2022-12-23T00:28:21.423Z,4.46
2022-12-23T00:29:21.642Z,4.48
2022-12-23T00:30:21.462Z,4.46
2022-12-23T00:31:21.710Z,4.48
2022-12-23T00:32:21.482Z,4.40
2022-12-23T00:33:21.616Z,4.43
2022-12-23T00:34:21.565Z,4.52
2022-12-23T00:35:21.463Z,4.58
2022-12-23T00:36:21.541Z,4.69
2022-12-23T00:37:20.641Z,4.74
2022-12-23T00:38:21.461Z,4.74
2022-12-23T00:39:21.530Z,4.77
2022-12-23T00:40:21.482Z,4.83
2022-12-23T00:41:21.525Z,4.85
2022-12-23T00:42:21.487Z,4.85
2022-12-23T00:43:21.284Z,4.83
2022-12-23T00:44:21.495Z,4.80
2022-12-23T00:45:21.463Z,4.83
2022-12-23T00:46:21.518Z,4.85
2022-12-23T00:47:21.261Z,4.85
2022-12-23T00:48:21.405Z,4.85
2022-12-23T00:49:21.291Z,4.80
2022-12-23T00:50:20.542Z,4.79
2022-12-23T00:51:22.782Z,4.74
2022-12-23T00:52:21.315Z,4.74
2022-12-23T00:53:21.263Z,4.74
2022-12-23T00:54:21.383Z,4.76
2022-12-23T00:55:21.281Z,4.71
2022-12-23T00:56:21.667Z,4.69
2022-12-23T00:57:20.561Z,4.70
2022-12-23T00:58:21.113Z,4.71
2022-12-23T00:59:21.632Z,4.70
2022-12-23T01:00:21.143Z,4.61
2022-12-23T01:01:21.321Z,4.55
2022-12-23T01:02:22.539Z,4.52
2022-12-23T01:03:21.378Z,4.53
2022-12-23T01:04:21.132Z,4.51
2022-12-23T01:05:21.281Z,4.48
2022-12-23T01:06:21.150Z,4.48
2022-12-23T01:07:22.409Z,4.51
2022-12-23T01:08:21.142Z,4.49
2022-12-23T01:09:21.384Z,4.51
2022-12-23T01:10:22.066Z,4.52
2022-12-23T01:11:21.202Z,4.51
2022-12-23T01:12:21.080Z,4.51
2022-12-23T01:13:22.183Z,4.48
2022-12-23T01:14:21.102Z,4.45
2022-12-23T01:15:21.657Z,4.43
2022-12-23T01:16:21.165Z,4.38
2022-12-23T01:17:21.021Z,4.41
2022-12-23T01:18:21.284Z,4.46
2022-12-23T01:19:21.570Z,4.49
2022-12-23T01:20:20.224Z,4.49
2022-12-23T01:21:21.664Z,4.51
2022-12-23T01:22:22.023Z,4.52
2022-12-23T01:23:20.164Z,4.53
2022-12-23T01:24:21.241Z,4.51
2022-12-23T01:25:20.944Z,4.51
2022-12-23T01:26:21.104Z,4.49
2022-12-23T01:27:20.942Z,4.49
2022-12-23T01:28:21.906Z,4.48
2022-12-23T01:29:21.301Z,4.49
2022-12-23T01:30:21.622Z,4.53
2022-12-23T01:31:21.390Z,4.55
2022-12-23T01:32:21.366Z,4.55
2022-12-23T01:33:20.941Z,4.52
2022-12-23T01:34:20.843Z,4.52
2022-12-23T01:35:20.965Z,4.52
2022-12-23T01:36:20.161Z,4.56
2022-12-23T01:37:21.304Z,4.58
2022-12-23T01:38:21.841Z,4.59
2022-12-23T01:39:20.990Z,4.56
2022-12-23T01:40:20.025Z,4.61
2022-12-23T01:41:21.007Z,4.63
2022-12-23T01:42:20.842Z,4.63
2022-12-23T01:43:20.841Z,4.59
2022-12-23T01:44:20.803Z,4.58
2022-12-23T01:45:20.643Z,4.55
2022-12-23T01:46:20.849Z,4.56
2022-12-23T01:47:20.033Z,4.55
2022-12-23T01:48:20.805Z,4.58
2022-12-23T01:49:20.881Z,4.61
2022-12-23T01:50:20.783Z,4.58
2022-12-23T01:51:21.206Z,4.58
2022-12-23T01:52:22.304Z,4.55
2022-12-23T01:53:20.683Z,4.53
2022-12-23T01:54:21.102Z,4.52
2022-12-23T01:55:19.882Z,4.52
2022-12-23T01:56:19.821Z,4.55
2022-12-23T01:57:20.827Z,4.56
2022-12-23T01:58:21.382Z,4.58
2022-12-23T01:59:20.644Z,4.63
2022-12-23T02:00:19.781Z,4.67
2022-12-23T02:01:19.917Z,4.70
2022-12-23T02:02:21.131Z,4.71
2022-12-23T02:03:21.180Z,4.76
2022-12-23T02:04:22.042Z,4.77
2022-12-23T02:05:20.627Z,4.67
2022-12-23T02:06:20.516Z,4.71
2022-12-23T02:07:20.543Z,4.69
2022-12-23T02:08:20.422Z,4.66
2022-12-23T02:09:21.426Z,4.66
2022-12-23T02:10:20.523Z,4.67
2022-12-23T02:11:20.623Z,4.63
2022-12-23T02:12:20.505Z,4.66
2022-12-23T02:13:20.543Z,4.66
2022-12-23T02:14:20.685Z,4.74
2022-12-23T02:15:20.305Z,4.79
2022-12-23T02:16:20.518Z,4.80
2022-12-23T02:17:20.281Z,4.88
2022-12-23T02:18:20.483Z,4.92
2022-12-23T02:19:20.261Z,4.90
2022-12-23T02:20:20.629Z,4.90
2022-12-23T02:21:20.282Z,4.90
2022-12-23T02:22:20.441Z,4.92
2022-12-23T02:23:20.302Z,4.92
2022-12-23T02:24:20.444Z,4.96
2022-12-23T02:25:20.523Z,4.99
2022-12-23T02:26:20.282Z,5.04
2022-12-23T02:27:20.312Z,5.06
2022-12-23T02:28:20.422Z,5.08
2022-12-23T02:29:20.342Z,5.13
2022-12-23T02:30:21.823Z,5.14
2022-12-23T02:31:20.324Z,5.16
2022-12-23T02:32:20.059Z,5.14
2022-12-23T02:33:20.341Z,5.19
2022-12-23T02:34:20.207Z,5.22
2022-12-23T02:35:20.450Z,5.22
2022-12-23T02:36:20.221Z,5.17
2022-12-23T02:37:20.301Z,5.19
2022-12-23T02:38:20.161Z,5.19
2022-12-23T02:39:20.247Z,5.26
2022-12-23T02:40:20.200Z,5.25
2022-12-23T02:41:20.363Z,5.26
2022-12-23T02:42:20.160Z,5.28
2022-12-23T02:43:20.222Z,5.28
2022-12-23T02:44:20.199Z,5.29
2022-12-23T02:45:19.926Z,5.26
2022-12-23T02:46:20.273Z,5.25
2022-12-23T02:47:19.940Z,5.28
2022-12-23T02:48:20.082Z,5.21
2022-12-23T02:49:20.060Z,5.10
2022-12-23T02:50:20.204Z,5.08
2022-12-23T02:51:19.979Z,5.11
2022-12-23T02:52:20.180Z,5.14
2022-12-23T02:53:19.966Z,5.10
2022-12-23T02:54:20.161Z,5.10
2022-12-23T02:55:20.060Z,5.10
2022-12-23T02:56:20.121Z,5.17
2022-12-23T02:57:20.126Z,5.16
2022-12-23T02:58:20.005Z,5.22
2022-12-23T02:59:19.901Z,5.21
2022-12-23T03:00:21.680Z,5.22
2022-12-23T03:01:20.114Z,5.21
2022-12-23T03:02:20.158Z,5.21
2022-12-23T03:03:20.176Z,5.24
2022-12-23T03:04:19.882Z,5.26
2022-12-23T03:05:20.020Z,5.24
2022-12-23T03:06:19.779Z,5.22
2022-12-23T03:07:21.906Z,5.21
2022-12-23T03:08:19.741Z,5.19
2022-12-23T03:09:20.002Z,5.22
2022-12-23T03:10:19.848Z,5.26
2022-12-23T03:11:19.942Z,5.25
2022-12-23T03:12:21.581Z,5.24
2022-12-23T03:13:19.821Z,5.25
2022-12-23T03:14:19.861Z,5.29
2022-12-23T03:15:19.928Z,5.29
2022-12-23T03:16:19.793Z,5.31
2022-12-23T03:17:19.710Z,5.32
2022-12-23T03:18:21.294Z,5.33
2022-12-23T03:19:19.705Z,5.35
2022-12-23T03:20:19.759Z,5.36
2022-12-23T03:21:19.700Z,5.35
2022-12-23T03:22:19.802Z,5.29
2022-12-23T03:23:19.779Z,5.35
2022-12-23T03:24:19.801Z,5.42
2022-12-23T03:25:19.712Z,5.47
2022-12-23T03:26:19.762Z,5.47
2022-12-23T03:27:19.680Z,5.57
2022-12-23T03:28:19.657Z,5.64
2022-12-23T03:29:19.778Z,5.76
2022-12-23T03:30:19.718Z,5.69
2022-12-23T03:31:19.759Z,5.61
2022-12-23T03:32:19.484Z,5.53
2022-12-23T03:33:19.729Z,5.53
2022-12-23T03:34:21.143Z,5.59
2022-12-23T03:35:19.561Z,5.61
2022-12-23T03:36:19.548Z,5.62
2022-12-23T03:37:19.598Z,5.59
2022-12-23T03:38:19.404Z,5.58
2022-12-23T03:39:21.204Z,5.58
2022-12-23T03:40:19.506Z,5.58
2022-12-23T03:41:19.570Z,5.57
2022-12-23T03:42:19.507Z,5.59
2022-12-23T03:43:19.500Z,5.57
2022-12-23T03:44:19.646Z,5.46
2022-12-23T03:45:38.075Z,5.35
2022-12-23T03:46:19.488Z,5.28
2022-12-23T03:47:19.239Z,5.17
2022-12-23T03:48:19.580Z,5.11
2022-12-23T03:49:19.379Z,5.10
2022-12-23T03:50:19.622Z,5.11
2022-12-23T03:51:19.361Z,5.16
2022-12-23T03:52:21.625Z,5.22
2022-12-23T03:53:19.380Z,5.21
2022-12-23T03:54:19.480Z,5.24
2022-12-23T03:55:19.526Z,5.25
2022-12-23T03:56:19.440Z,5.26
2022-12-23T03:57:19.340Z,5.21
2022-12-23T03:58:19.480Z,5.21
2022-12-23T03:59:19.346Z,5.19
2022-12-23T04:00:19.501Z,5.21
2022-12-23T04:01:19.301Z,5.22
2022-12-23T04:02:19.333Z,5.19
2022-12-23T04:03:19.261Z,5.22
2022-12-23T04:04:20.833Z,5.24
2022-12-23T04:05:20.934Z,5.29
2022-12-23T04:06:19.239Z,5.32
2022-12-23T04:07:19.261Z,5.33
2022-12-23T04:08:19.248Z,5.35
2022-12-23T04:09:22.126Z,5.36
2022-12-23T04:10:21.384Z,5.33
2022-12-23T04:11:19.328Z,5.31
2022-12-23T04:12:19.252Z,5.29
2022-12-23T04:13:19.306Z,5.25
2022-12-23T04:14:19.122Z,5.28
2022-12-23T04:15:19.401Z,5.33
2022-12-23T04:16:20.925Z,5.40
2022-12-23T04:17:19.045Z,5.36
2022-12-23T04:18:19.250Z,5.26
2022-12-23T04:19:19.002Z,5.29
2022-12-23T04:20:20.801Z,5.31
2022-12-23T04:21:19.102Z,5.28
2022-12-23T04:22:19.145Z,5.28
2022-12-23T04:23:19.004Z,5.26
2022-12-23T04:24:19.260Z,5.26
2022-12-23T04:25:19.081Z,5.26
2022-12-23T04:26:19.241Z,5.13
2022-12-23T04:27:19.077Z,4.99
2022-12-23T04:28:19.121Z,5.01
2022-12-23T04:29:19.001Z,4.93
2022-12-23T04:30:19.022Z,4.86
2022-12-23T04:31:19.218Z,4.89
2022-12-23T04:32:18.781Z,4.88
2022-12-23T04:33:19.061Z,4.74
2022-12-23T04:34:18.780Z,4.73
2022-12-23T04:35:18.941Z,4.76
2022-12-23T04:36:20.534Z,4.79
2022-12-23T04:37:19.040Z,4.85
2022-12-23T04:38:18.762Z,4.89
2022-12-23T04:39:19.041Z,4.88
2022-12-23T04:40:18.944Z,4.88
2022-12-23T04:41:19.027Z,4.90
2022-12-23T04:42:20.401Z,4.90
2022-12-23T04:43:18.985Z,4.88
2022-12-23T04:44:18.888Z,4.80
2022-12-23T04:45:18.990Z,4.80
2022-12-23T04:46:18.791Z,4.92
2022-12-23T04:47:20.343Z,4.98
2022-12-23T04:48:18.930Z,5.08
2022-12-23T04:49:18.644Z,5.13
2022-12-23T04:50:18.772Z,5.10
2022-12-23T04:51:18.733Z,4.98
2022-12-23T04:52:20.540Z,4.90
2022-12-23T04:53:18.653Z,4.89
2022-12-23T04:54:18.889Z,4.83
2022-12-23T04:55:18.641Z,4.79
2022-12-23T04:56:18.746Z,4.83
2022-12-23T04:57:18.741Z,4.80
2022-12-23T04:58:20.383Z,4.77
2022-12-23T04:59:18.601Z,4.76
2022-12-23T05:00:18.822Z,4.83
2022-12-23T05:01:20.416Z,4.90
2022-12-23T05:02:18.859Z,4.90
2022-12-23T05:03:18.986Z,4.86
2022-12-23T05:04:18.672Z,4.80
2022-12-23T05:05:18.644Z,4.80
2022-12-23T05:06:18.662Z,4.83
2022-12-23T05:07:18.769Z,4.89
2022-12-23T05:08:19.982Z,4.90
2022-12-23T05:09:18.701Z,4.96
2022-12-23T05:10:18.450Z,5.01
2022-12-23T05:11:18.682Z,4.99
2022-12-23T05:12:18.524Z,5.06
2022-12-23T05:13:18.661Z,5.04
2022-12-23T05:14:18.622Z,5.07
2022-12-23T05:15:18.641Z,5.04
2022-12-23T05:16:18.607Z,5.04
2022-12-23T05:17:18.605Z,5.01
2022-12-23T05:18:18.582Z,4.95
2022-12-23T05:19:20.387Z,4.93
2022-12-23T05:20:18.602Z,4.92
2022-12-23T05:21:18.335Z,4.90
2022-12-23T05:22:18.584Z,4.93
2022-12-23T05:23:18.387Z,5.01
2022-12-23T05:24:20.385Z,5.04
2022-12-23T05:25:18.433Z,5.04
2022-12-23T05:26:18.421Z,4.93
2022-12-23T05:27:18.429Z,4.93
2022-12-23T05:28:18.423Z,4.89
2022-12-23T05:29:20.224Z,4.88
2022-12-23T05:30:18.603Z,4.88
2022-12-23T05:31:18.394Z,4.90
2022-12-23T05:32:18.442Z,4.92
2022-12-23T05:33:18.496Z,4.93
2022-12-23T05:34:18.266Z,4.92
2022-12-23T05:35:18.520Z,4.98
2022-12-23T05:36:18.270Z,4.98
2022-12-23T05:37:18.390Z,4.98
2022-12-23T05:38:18.125Z,4.98
2022-12-23T05:39:18.341Z,4.98
2022-12-23T05:40:23.288Z,5.01
2022-12-23T05:41:18.381Z,5.06
2022-12-23T05:42:18.200Z,5.11
2022-12-23T05:43:18.386Z,5.25
2022-12-23T05:44:18.160Z,5.28
2022-12-23T05:45:18.661Z,5.33
2022-12-23T05:46:25.942Z,5.28
2022-12-23T05:47:18.361Z,5.28
2022-12-23T05:48:18.275Z,5.32
2022-12-23T05:49:20.195Z,5.36
2022-12-23T05:50:18.361Z,5.40
2022-12-23T05:51:17.961Z,5.35
2022-12-23T05:52:18.220Z,5.26
2022-12-23T05:53:18.081Z,5.31
2022-12-23T05:54:18.122Z,5.42
2022-12-23T05:55:19.879Z,5.40
2022-12-23T05:56:18.181Z,5.33
2022-12-23T05:57:18.123Z,5.31
2022-12-23T05:58:18.221Z,5.26
2022-12-23T05:59:18.064Z,5.24
2022-12-23T06:00:18.153Z,5.33
2022-12-23T06:01:19.803Z,5.36
2022-12-23T06:02:18.378Z,5.40
2022-12-23T06:03:18.276Z,5.42
2022-12-23T06:04:17.987Z,5.40
2022-12-23T06:05:17.961Z,5.42
2022-12-23T06:06:18.043Z,5.28
2022-12-23T06:07:17.959Z,5.17
2022-12-23T06:08:17.902Z,5.13
2022-12-23T06:09:18.043Z,5.11
2022-12-23T06:10:17.922Z,5.14
2022-12-23T06:11:18.146Z,5.16
2022-12-23T06:12:17.900Z,5.22
2022-12-23T06:13:18.026Z,5.28
2022-12-23T06:14:17.900Z,5.26
2022-12-23T06:15:18.024Z,5.24
2022-12-23T06:16:19.612Z,5.28
2022-12-23T06:17:18.025Z,5.26
2022-12-23T06:18:17.914Z,5.22
2022-12-23T06:19:17.741Z,5.31
2022-12-23T06:20:20.759Z,5.32
2022-12-23T06:21:17.862Z,5.35
2022-12-23T06:22:18.220Z,5.35
2022-12-23T06:23:17.861Z,5.31
2022-12-23T06:24:17.900Z,5.28
2022-12-23T06:25:17.789Z,5.36
2022-12-23T06:26:17.980Z,5.42
2022-12-23T06:27:17.804Z,5.46
2022-12-23T06:28:17.761Z,5.39
2022-12-23T06:29:17.740Z,5.36
2022-12-23T06:30:17.860Z,5.28
2022-12-23T06:31:17.808Z,5.29
2022-12-23T06:32:18.006Z,5.32
2022-12-23T06:33:17.742Z,5.21
2022-12-23T06:34:17.861Z,5.08
2022-12-23T06:35:17.780Z,5.01
2022-12-23T06:36:17.502Z,5.01
2022-12-23T06:37:17.778Z,5.06
2022-12-23T06:38:17.484Z,4.99
2022-12-23T06:39:17.672Z,5.06
2022-12-23T06:40:17.571Z,5.08
2022-12-23T06:41:17.821Z,5.11
2022-12-23T06:42:17.546Z,5.10
2022-12-23T06:43:17.829Z,4.98
2022-12-23T06:44:17.588Z,4.80
2022-12-23T06:45:17.720Z,4.80
2022-12-23T06:46:17.605Z,4.86
2022-12-23T06:47:17.699Z,4.89
2022-12-23T06:48:17.640Z,4.96
2022-12-23T06:49:17.679Z,4.95
2022-12-23T06:50:17.581Z,4.98
2022-12-23T06:51:17.361Z,4.92
2022-12-23T06:52:17.590Z,4.95
2022-12-23T06:53:17.483Z,4.96
2022-12-23T06:54:19.192Z,4.92
2022-12-23T06:55:17.371Z,4.80
2022-12-23T06:56:17.624Z,4.83
2022-12-23T06:57:17.401Z,4.83
2022-12-23T06:58:17.459Z,4.92
2022-12-23T06:59:17.665Z,4.92
2022-12-23T07:00:17.566Z,4.92
2022-12-23T07:01:17.569Z,4.99
2022-12-23T07:02:17.715Z,4.99
2022-12-23T07:03:17.572Z,4.98
2022-12-23T07:04:17.499Z,5.01
2022-12-23T07:05:17.543Z,5.03
2022-12-23T07:06:17.327Z,5.07
2022-12-23T07:07:17.381Z,5.10
2022-12-23T07:08:17.164Z,5.10
2022-12-23T07:09:17.360Z,5.13
2022-12-23T07:10:17.459Z,5.10
2022-12-23T07:11:17.500Z,5.19
2022-12-23T07:12:17.330Z,5.21
2022-12-23T07:13:17.421Z,5.21
2022-12-23T07:14:17.303Z,5.16
2022-12-23T07:15:17.306Z,5.13
2022-12-23T07:16:17.474Z,5.04
2022-12-23T07:17:17.421Z,5.04
2022-12-23T07:18:17.304Z,5.10
2022-12-23T07:19:17.338Z,5.16
2022-12-23T07:20:17.279Z,5.22
2022-12-23T07:21:28.341Z,5.22
2022-12-23T07:22:17.164Z,5.21
2022-12-23T07:23:17.100Z,5.28
2022-12-23T07:24:17.186Z,5.31
2022-12-23T07:25:17.024Z,5.26
2022-12-23T07:26:17.356Z,5.22
2022-12-23T07:27:17.143Z,5.25
2022-12-23T07:28:17.259Z,5.17
2022-12-23T07:29:17.140Z,5.16
2022-12-23T07:30:17.180Z,5.19
2022-12-23T07:31:17.180Z,5.08
2022-12-23T07:32:17.342Z,5.03
2022-12-23T07:33:17.165Z,4.98
2022-12-23T07:34:17.241Z,4.96
2022-12-23T07:35:17.068Z,4.86
2022-12-23T07:36:16.958Z,4.80
2022-12-23T07:37:17.179Z,4.77
2022-12-23T07:38:16.922Z,4.83
2022-12-23T07:39:17.119Z,4.83
2022-12-23T07:40:16.960Z,4.80
2022-12-23T07:41:17.141Z,4.90
2022-12-23T07:42:43.345Z,4.95
2022-12-23T07:43:17.881Z,4.95
2022-12-23T07:44:16.843Z,4.98
2022-12-23T07:45:17.006Z,4.98
2022-12-23T07:46:16.980Z,4.89
2022-12-23T07:47:17.106Z,4.86
2022-12-23T07:48:16.983Z,4.92
2022-12-23T07:49:18.843Z,4.95
2022-12-23T07:50:16.961Z,4.99
2022-12-23T07:51:16.762Z,5.04
2022-12-23T07:52:16.990Z,5.07
2022-12-23T07:53:16.719Z,5.04
2022-12-23T07:54:17.018Z,5.08
2022-12-23T07:55:16.819Z,5.04
2022-12-23T07:56:16.959Z,4.99
2022-12-23T07:57:16.798Z,4.96
2022-12-23T07:58:16.977Z,4.99
2022-12-23T07:59:18.418Z,4.98
2022-12-23T08:00:16.881Z,5.04
2022-12-23T08:01:16.748Z,5.11
2022-12-23T08:02:17.006Z,5.13
2022-12-23T08:03:16.950Z,5.13
2022-12-23T08:04:17.047Z,5.14
2022-12-23T08:05:16.952Z,5.11
2022-12-23T08:06:17.002Z,5.11
2022-12-23T08:07:16.864Z,5.07
2022-12-23T08:08:16.760Z,5.08
2022-12-23T08:09:16.699Z,5.13
2022-12-23T08:10:16.741Z,5.08
2022-12-23T08:11:16.802Z,5.08
2022-12-23T08:12:16.697Z,5.14
2022-12-23T08:13:16.741Z,5.17
2022-12-23T08:14:16.799Z,5.17
2022-12-23T08:15:16.740Z,5.21
2022-12-23T08:16:16.718Z,5.19
2022-12-23T08:17:16.897Z,5.21
2022-12-23T08:18:17.039Z,5.29
2022-12-23T08:19:16.753Z,5.35
2022-12-23T08:20:16.659Z,5.31
2022-12-23T08:21:16.776Z,5.40
2022-12-23T08:22:16.565Z,5.42
2022-12-23T08:23:19.995Z,5.51
2022-12-23T08:24:16.668Z,5.61
2022-12-23T08:25:16.437Z,5.64
2022-12-23T08:26:16.659Z,5.74
2022-12-23T08:27:16.618Z,5.76
2022-12-23T08:28:15.718Z,5.74
2022-12-23T08:29:16.428Z,5.68
2022-12-23T08:30:16.525Z,5.76
2022-12-23T08:31:16.596Z,5.62
2022-12-23T08:32:16.500Z,5.67
2022-12-23T08:33:16.637Z,5.74
2022-12-23T08:34:16.558Z,5.86
2022-12-23T08:35:16.359Z,5.98
2022-12-23T08:36:22.373Z,6.05
2022-12-23T08:37:16.920Z,5.89
2022-12-23T08:38:17.962Z,6.03
2022-12-23T08:39:16.938Z,6.13
2022-12-23T08:40:16.323Z,6.27
2022-12-23T08:41:16.442Z,6.37
2022-12-23T08:42:16.321Z,6.15
2022-12-23T08:43:16.495Z,6.21
2022-12-23T08:44:16.438Z,6.29
2022-12-23T08:45:16.431Z,6.15
2022-12-23T08:46:16.512Z,6.19
2022-12-23T08:47:18.421Z,6.11
2022-12-23T08:48:16.900Z,6.10
2022-12-23T08:49:16.401Z,6.01
2022-12-23T08:50:16.277Z,6.13
2022-12-23T08:51:16.401Z,6.11
2022-12-23T08:52:16.458Z,6.05
2022-12-23T08:53:16.207Z,6.00
2022-12-23T08:54:16.323Z,6.21
2022-12-23T08:55:17.127Z,6.35
2022-12-23T08:56:16.412Z,6.47
2022-12-23T08:57:16.122Z,6.45
2022-12-23T08:58:16.378Z,6.49
2022-12-23T08:59:19.058Z,6.49
2022-12-23T09:00:16.280Z,6.39
2022-12-23T09:01:16.088Z,6.42
2022-12-23T09:02:17.201Z,6.49
2022-12-23T09:03:16.141Z,6.45
2022-12-23T09:04:16.157Z,6.60
2022-12-23T09:05:15.318Z,6.65
2022-12-23T09:06:16.241Z,6.80
2022-12-23T09:07:16.181Z,6.81
2022-12-23T09:08:16.802Z,6.85
2022-12-23T09:09:16.397Z,6.91
2022-12-23T09:10:15.559Z,7.00
2022-12-23T09:11:15.281Z,6.96
2022-12-23T09:12:15.259Z,7.08
2022-12-23T09:13:24.992Z,7.18
2022-12-23T09:14:16.780Z,7.17
2022-12-23T09:15:16.299Z,7.53
2022-12-23T09:16:16.313Z,7.76
2022-12-23T09:17:16.099Z,7.78
2022-12-23T09:18:15.219Z,7.90
2022-12-23T09:19:16.961Z,7.84
2022-12-23T09:20:16.719Z,7.79
2022-12-23T09:21:16.121Z,7.90
2022-12-23T09:22:16.199Z,7.91
2022-12-23T09:23:16.198Z,8.12
2022-12-23T09:24:16.207Z,8.26
2022-12-23T09:25:15.241Z,8.21
2022-12-23T09:26:15.121Z,8.21
2022-12-23T09:27:15.083Z,8.29
2022-12-23T09:28:15.119Z,8.45
2022-12-23T09:29:15.083Z,8.57
2022-12-23T09:30:16.120Z,8.70
2022-12-23T09:31:15.107Z,8.75
2022-12-23T09:32:16.941Z,8.88
2022-12-23T09:33:16.221Z,9.11
2022-12-23T09:34:16.226Z,9.44
2022-12-23T09:35:15.041Z,9.61
2022-12-23T09:36:16.039Z,9.67
2022-12-23T09:37:16.118Z,9.54
2022-12-23T09:38:16.284Z,9.49
2022-12-23T09:39:16.465Z,9.46
2022-12-23T09:40:14.960Z,9.62
2022-12-23T09:41:16.939Z,9.94
2022-12-23T09:42:16.705Z,9.85
2022-12-23T09:43:16.023Z,9.82
2022-12-23T09:44:14.931Z,10.16
2022-12-23T09:45:14.949Z,10.23
2022-12-23T09:46:16.021Z,10.35
2022-12-23T09:47:14.902Z,10.27
2022-12-23T09:48:16.779Z,10.16
2022-12-23T09:49:16.708Z,10.09
2022-12-23T09:50:15.719Z,10.04
2022-12-23T09:51:15.831Z,10.20
2022-12-23T09:52:14.842Z,10.13
2022-12-23T09:53:16.820Z,10.82
2022-12-23T09:54:17.399Z,12.42
2022-12-23T09:55:17.162Z,13.75
2022-12-23T09:56:16.549Z,14.70
2022-12-23T09:57:14.841Z,15.69
2022-12-23T09:58:16.162Z,16.35
2022-12-23T09:59:16.023Z,16.71
2022-12-23T10:00:14.760Z,16.91
2022-12-23T10:01:14.760Z,15.83
2022-12-23T10:02:14.935Z,15.43
2022-12-23T10:03:15.140Z,15.32
2022-12-23T10:04:16.355Z,15.77
2022-12-23T10:05:14.700Z,16.32
2022-12-23T10:06:16.259Z,16.71
2022-12-23T10:07:15.922Z,16.65
2022-12-23T10:08:16.099Z,16.83
2022-12-23T10:09:15.567Z,17.41
2022-12-23T10:10:15.381Z,17.56
2022-12-23T10:11:15.682Z,17.80
2022-12-23T10:12:14.663Z,18.20
2022-12-23T10:13:14.699Z,18.66
2022-12-23T10:14:16.440Z,19.22
2022-12-23T10:15:14.602Z,19.33
2022-12-23T10:16:14.743Z,19.18
2022-12-23T10:17:16.417Z,19.55
2022-12-23T10:18:16.357Z,19.86
2022-12-23T10:19:14.562Z,19.99
2022-12-23T10:20:16.471Z,19.71
2022-12-23T10:21:15.566Z,19.85
2022-12-23T10:22:15.504Z,19.71
2022-12-23T10:23:15.961Z,19.39
2022-12-23T10:24:16.144Z,18.93
2022-12-23T10:25:14.526Z,19.41
2022-12-23T10:26:14.485Z,19.00
2022-12-23T10:27:15.102Z,19.23
2022-12-23T10:28:15.783Z,19.63
2022-12-23T10:29:18.741Z,19.91
2022-12-23T10:30:49.507Z,20.24
2022-12-23T10:31:40.227Z,20.48
2022-12-23T10:32:15.951Z,20.56
2022-12-23T10:33:16.222Z,20.55
2022-12-23T10:34:14.420Z,20.89
2022-12-23T10:35:16.123Z,21.22
2022-12-23T10:36:16.194Z,21.35
2022-12-23T10:37:14.415Z,21.35
2022-12-23T10:38:15.841Z,21.36
2022-12-23T10:39:14.942Z,21.29
2022-12-23T10:40:16.184Z,21.42
2022-12-23T10:41:15.256Z,21.63
2022-12-23T10:42:15.904Z,21.66
2022-12-23T10:43:15.266Z,21.52
2022-12-23T10:44:15.062Z,21.33
2022-12-23T10:45:15.823Z,21.22
2022-12-23T10:46:14.680Z,21.39
2022-12-23T10:47:14.301Z,21.55
2022-12-23T10:48:15.941Z,21.77
2022-12-23T10:49:14.286Z,21.67
2022-12-23T10:50:15.061Z,21.76
2022-12-23T10:51:14.351Z,21.74
2022-12-23T10:52:15.655Z,21.70
2022-12-23T10:53:15.982Z,21.88
2022-12-23T10:54:15.261Z,21.85
2022-12-23T10:55:16.085Z,21.98
2022-12-23T10:56:14.320Z,21.76
2022-12-23T10:57:15.122Z,21.40
2022-12-23T10:58:14.150Z,20.50
2022-12-23T10:59:14.906Z,19.41
2022-12-23T11:00:15.704Z,18.38
2022-12-23T11:01:24.152Z,17.35
2022-12-23T11:02:15.558Z,16.09
2022-12-23T11:03:14.959Z,15.25
2022-12-23T11:04:14.805Z,14.81
2022-12-23T11:05:15.278Z,14.53
2022-12-23T11:06:15.718Z,14.22
2022-12-23T11:08:14.848Z,13.70
2022-12-23T11:09:14.489Z,13.56
2022-12-23T11:10:14.733Z,13.37
2022-12-23T11:11:13.719Z,13.11
2022-12-23T11:12:13.767Z,12.87
2022-12-23T11:13:14.390Z,12.50
2022-12-23T11:14:14.318Z,12.46
2022-12-23T11:15:14.568Z,12.40
2022-12-23T11:16:13.799Z,12.35
2022-12-23T11:17:13.717Z,12.32
2022-12-23T11:18:14.366Z,12.30
2022-12-23T11:19:14.499Z,12.20
2022-12-23T11:20:15.270Z,12.03
2022-12-23T11:21:15.019Z,11.96
2022-12-23T11:22:15.119Z,11.96
2022-12-23T11:23:14.598Z,12.03
2022-12-23T11:24:13.560Z,12.07
2022-12-23T11:25:14.547Z,12.06
2022-12-23T11:26:13.543Z,12.05
2022-12-23T11:27:14.378Z,12.14
2022-12-23T11:28:14.984Z,12.22
2022-12-23T11:29:14.498Z,12.32
2022-12-23T11:30:13.572Z,12.47
2022-12-23T11:31:14.500Z,12.64
2022-12-23T11:32:15.236Z,12.79
2022-12-23T11:33:13.508Z,12.91
2022-12-23T11:34:14.995Z,13.01
2022-12-23T11:35:14.877Z,13.01
2022-12-23T11:36:14.506Z,13.00
2022-12-23T11:37:14.208Z,12.93
2022-12-23T11:38:13.479Z,12.78
2022-12-23T11:39:14.200Z,12.69
2022-12-23T11:40:14.074Z,12.47
2022-12-23T11:41:14.244Z,12.27
2022-12-23T11:42:14.040Z,12.10
2022-12-23T11:43:14.250Z,11.91
2022-12-23T11:44:14.862Z,11.88
2022-12-23T11:45:14.313Z,11.83
2022-12-23T11:46:14.364Z,11.80
2022-12-23T11:47:14.234Z,11.83
2022-12-23T11:48:14.134Z,11.79
2022-12-23T11:49:13.303Z,11.77
2022-12-23T11:50:15.073Z,11.81
2022-12-23T11:51:14.033Z,11.84
2022-12-23T11:52:14.351Z,11.86
2022-12-23T11:53:14.951Z,11.87
2022-12-23T11:54:14.101Z,11.91
2022-12-23T11:55:14.229Z,11.95
2022-12-23T11:56:14.162Z,12.00
2022-12-23T11:57:14.022Z,11.95
2022-12-23T11:58:13.871Z,11.96
2022-12-23T11:59:14.752Z,11.99
2022-12-23T12:00:14.285Z,11.96
2022-12-23T12:01:14.412Z,11.91
2022-12-23T12:02:14.201Z,11.95
2022-12-23T12:03:14.480Z,11.95
2022-12-23T12:04:14.730Z,11.91
2022-12-23T12:05:14.480Z,11.88
2022-12-23T12:06:14.174Z,11.88
2022-12-23T12:07:14.700Z,11.96
2022-12-23T12:08:14.194Z,11.97
2022-12-23T12:09:13.964Z,12.03
2022-12-23T12:10:13.752Z,12.02
2022-12-23T12:11:15.093Z,12.00
2022-12-23T12:12:13.091Z,12.02
2022-12-23T12:13:14.243Z,12.09
2022-12-23T12:14:13.134Z,12.13
2022-12-23T12:15:14.409Z,12.14
2022-12-23T12:16:13.500Z,12.13
2022-12-23T12:17:14.822Z,12.17
2022-12-23T12:18:14.667Z,12.20
2022-12-23T12:19:14.294Z,12.27
2022-12-23T12:20:13.796Z,12.33
2022-12-23T12:21:12.963Z,12.39
2022-12-23T12:22:14.500Z,12.50
2022-12-23T12:23:13.510Z,12.54
2022-12-23T12:24:18.968Z,12.58
2022-12-23T12:25:12.947Z,12.58
2022-12-23T12:26:13.853Z,12.61
2022-12-23T12:27:12.903Z,12.61
2022-12-23T12:28:13.722Z,12.63
2022-12-23T12:29:12.945Z,12.54
2022-12-23T12:30:13.739Z,12.51
2022-12-23T12:31:14.234Z,12.45
2022-12-23T12:32:12.882Z,12.42
2022-12-23T12:33:13.652Z,12.36
2022-12-23T12:34:12.873Z,12.35
2022-12-23T12:35:13.812Z,12.32
2022-12-23T12:36:14.471Z,12.33
2022-12-23T12:37:13.625Z,12.32
2022-12-23T12:38:14.660Z,12.33
2022-12-23T12:39:13.561Z,12.33
2022-12-23T12:40:13.535Z,12.35
2022-12-23T12:41:13.583Z,12.36
2022-12-23T12:42:13.352Z,12.36
2022-12-23T12:43:13.651Z,12.38
2022-12-23T12:44:12.763Z,12.47
2022-12-23T12:45:14.764Z,12.51
2022-12-23T12:46:13.675Z,12.50
2022-12-23T12:47:28.486Z,12.51
2022-12-23T12:48:18.233Z,12.47
2022-12-23T12:49:13.641Z,12.43
2022-12-23T12:50:13.792Z,12.40
2022-12-23T12:51:13.771Z,12.38
2022-12-23T12:52:14.659Z,12.33
2022-12-23T12:53:13.481Z,12.28
2022-12-23T12:54:12.634Z,12.30
2022-12-23T12:55:12.612Z,12.20
2022-12-23T12:56:13.631Z,12.10
2022-12-23T12:57:12.592Z,12.03
2022-12-23T12:58:13.501Z,12.00
2022-12-23T12:59:12.561Z,11.90
2022-12-23T13:00:13.996Z,11.88
2022-12-23T13:01:13.355Z,11.91
2022-12-23T13:02:14.500Z,11.91
2022-12-23T13:03:13.260Z,11.91
2022-12-23T13:04:13.370Z,11.95
2022-12-23T13:05:14.397Z,11.95
2022-12-23T13:06:12.604Z,11.95
2022-12-23T13:07:13.191Z,12.00
2022-12-23T13:08:12.496Z,12.03
2022-12-23T13:09:13.226Z,12.00
2022-12-23T13:10:13.183Z,12.03
2022-12-23T13:11:12.503Z,12.07
2022-12-23T13:12:13.211Z,12.09